首页
METAR-TAF:

METAR-TAF

机场 :

Air Force Base

Langley, 弗吉尼亚州, 美国

纬度: 37-05N, 经度: 076-21W, 海拔: 3米

当前天气观测

该预报发布于59分钟前的15:56 UTC
风速12节,风向南转西南
温度 28°C
湿度 70%
气压 1015 hPa
能見度: 16.1公里
多云层高于3700英尺
多云层高于10000英尺

METAR: KLFI 051556Z 20012KT 10SM BKN037 BKN100 28/22 A2998 RMK AO2A SLP158 T02820217 $

时间: 12:55 (16:55 UTC)

预报

该预报发布于23小时和55分钟前的17:00 UTC
预报有效从05日的 17点(UTC)到 06日的 23点(UTC)
风速15节,风向南转西南,有时为25节阵风
能见度10公里或以上
多云层高于3000英尺
短暂存在
从 05日的 19点(UTC)到 05日的 22点(UTC)
风速15节,风向西南,有时为25节阵风
能見度: 4800
阴天层高于2500英尺, 积雨云.
雷暴, 小雨
成为
从 05日的 23点(UTC)到 05日的 24点(UTC)
风速9节,风向西南
能見度: 9000
多云层高于2000英尺
小阵雨
成为
从 06日的 02点(UTC)到 06日的 03点(UTC)
风速9节,风向南转西南
能见度10公里或以上
多云层高于2500英尺
成为
从 06日的 09点(UTC)到 06日的 10点(UTC)
风速9节,风向西南
能見度: 9000
阴天层高于700英尺
小阵雨
短暂存在
从 06日的 14点(UTC)到 06日的 19点(UTC)
风速10节,风向西转西南,有时为15节阵风
能見度: 4800
阴天层高于1000英尺, 积雨云.
雷暴, 小雨
成为
从 06日的 19点(UTC)到 06日的 20点(UTC)
风速6节,风向多变
能見度: 9000
散云层高于2500英尺
小阵雨

TAF: KLFI 051700Z 0517/0623 20015G25KT 9999 BKN030 QNH2980INS TEMPO 0519/0522 22015G25KT 4800 -TSRA OVC025CB BECMG 0523/0524 23009KT 9000 -SHRA BKN020 QNH2982INS BECMG 0602/0603 20009KT 9999 NSW BKN025 QNH2980INS BECMG 0609/0610 22009KT 9000 -SHRA OVC007 QNH2979INS TEMPO 0614/0619 25010G15KT 4800 -TSRA OVC010CB BECMG 0619/0620 VRB06KT 9000 -SHRA SCT025 QNH2975INS TX31/0520Z TN21/0609Z

超过4000个机场的气象观测和天气预报(METAR&TAF报告)。

可查询的气象台以黄色和红色小点在地图上表示。

将鼠标移到小点上方,可查看气象台名称。

然后点击查看天气观测和预报。

如需切换地图:点击带黑十字的绿色按钮放大地图;点击带横线的绿色按钮缩小地图;或者点击绿色箭头查看邻近地区的地图。


METAR-TAF: